LFMV/AVN METAR and TAF weather

Enter ICAO airport designator
Station Type Date Time Source
LFMV METAR 2019/02/22 23:00 UTC NOAA

LFMV 222300Z AUTO 35014KT CAVOK 13/06 Q1026


Station Type Date Time Source
LFMV Decoded METAR 2019/02/22 23:00 UTC NOAA

Station name not available
Feb 22, 2019 - 06:00 PM EST / 2019.02.22 2300 UTC
Wind: from the N (350 degrees) at 16 MPH (14 KT):0
Visibility: greater than 7 mile(s):0
Temperature: 55 F (13 C)
Dew Point: 42 F (6 C)
Relative Humidity: 62%
Pressure (altimeter): 30.30 in. Hg (1026 hPa)
ob: LFMV 222300Z AUTO 35014KT CAVOK 13/06 Q1026
cycle: 23

Station Type Date Time Source
LFMV TAF 2019/02/22 20:00 UTC NOAA

TAF
AMD LFMV 222001Z 2220/2315 CNL


Example: see airport list